Time;durP1;ratioP1;P1;durP2;ratioP2;P2;SDS_P1;SDS_P2;PMS_P1;PMS_P2;Temp;Humidity;BMP_temperature;BMP_pressure;BME280_temperature;BME280_humidity;BME280_pressure;Samples;Min_cycle;Max_cycle;Signal;HPM_P1;HPM_P2
2021/01/28 00:00:41;;;;;;;44.95;24.48;;;-0.50;99.90;;;;;;5085266;28;20052;-47
2021/01/28 00:03:10;;;;;;;48.60;25.27;;;-0.50;99.90;;;;;;5083096;28;20054;-47
2021/01/28 00:05:41;;;;;;;43.85;22.50;;;-0.40;99.90;;;;;;5083843;28;20089;-47
2021/01/28 00:08:08;;;;;;;34.30;17.33;;;-0.40;99.90;;;;;;5076185;28;20138;-48
2021/01/28 00:10:36;;;;;;;45.20;20.35;;;-0.30;99.90;;;;;;5089620;28;20047;-46
2021/01/28 00:13:05;;;;;;;43.70;19.15;;;-0.40;99.90;;;;;;5078952;28;20048;-46
2021/01/28 00:15:33;;;;;;;42.65;21.20;;;-0.50;99.90;;;;;;5085395;28;20106;-47
2021/01/28 00:18:02;;;;;;;43.38;21.50;;;-0.60;99.90;;;;;;5084930;28;20387;-46
2021/01/28 00:20:38;;;;;;;43.88;21.25;;;-0.60;99.90;;;;;;5077809;28;20404;-46
2021/01/28 00:23:05;;;;;;;38.85;19.42;;;-0.60;99.90;;;;;;5086698;28;20076;-47
2021/01/28 00:25:33;;;;;;;38.15;20.10;;;-0.50;99.90;;;;;;5086368;28;20052;-48
2021/01/28 00:28:00;;;;;;;40.63;20.50;;;-0.50;99.90;;;;;;5087805;28;20063;-46
2021/01/28 00:30:39;;;;;;;39.20;21.42;;;-0.50;99.90;;;;;;5082194;28;20052;-48
2021/01/28 00:33:07;;;;;;;35.10;18.73;;;-0.40;99.90;;;;;;5074780;28;20383;-46
2021/01/28 00:35:35;;;;;;;30.27;15.60;;;-0.50;99.90;;;;;;5089186;28;20369;-46
2021/01/28 00:38:09;;;;;;;34.83;16.92;;;-0.50;99.90;;;;;;5086153;28;20054;-46
2021/01/28 00:40:36;;;;;;;30.80;16.48;;;-0.50;99.90;;;;;;5078859;28;20049;-47
2021/01/28 00:43:03;;;;;;;29.17;13.10;;;-0.50;99.90;;;;;;5080752;28;20124;-47
2021/01/28 00:45:31;;;;;;;23.23;12.80;;;-0.50;99.90;;;;;;5088538;28;20109;-46
2021/01/28 00:47:59;;;;;;;22.23;11.68;;;-0.40;99.90;;;;;;5082169;28;20496;-46
2021/01/28 00:50:28;;;;;;;26.05;11.95;;;-0.50;99.90;;;;;;5079472;28;20429;-47
2021/01/28 00:52:55;;;;;;;22.17;11.70;;;-0.50;99.90;;;;;;5086734;28;20054;-46
2021/01/28 00:55:22;;;;;;;27.63;14.45;;;-0.50;99.90;;;;;;5085083;28;20052;-47
2021/01/28 00:57:49;;;;;;;32.13;18.17;;;-0.40;99.90;;;;;;5077133;28;20703;-46
2021/01/28 01:00:28;;;;;;;29.95;14.90;;;-0.40;99.90;;;;;;5078833;28;20044;-47
2021/01/28 01:02:55;;;;;;;31.50;15.23;;;-0.40;99.90;;;;;;5086716;28;20052;-46
2021/01/28 01:05:26;;;;;;;29.58;13.95;;;-0.40;99.90;;;;;;5083992;28;20048;-46
2021/01/28 01:07:54;;;;;;;29.65;14.23;;;-0.50;99.90;;;;;;5078636;28;20902;-46
2021/01/28 01:10:33;;;;;;;24.35;12.07;;;-0.50;99.90;;;;;;5086824;28;20058;-46
2021/01/28 01:12:59;;;;;;;31.95;13.93;;;-0.50;99.90;;;;;;5084140;28;20048;-46
2021/01/28 01:15:26;;;;;;;27.98;12.57;;;-0.60;99.90;;;;;;5094286;28;20063;-47
2021/01/28 01:17:53;;;;;;;30.42;14.20;;;-0.60;99.90;;;;;;5088064;28;20036;-47
2021/01/28 01:20:22;;;;;;;26.40;13.63;;;-0.60;99.90;;;;;;5086960;28;20063;-47
2021/01/28 01:22:50;;;;;;;29.50;13.95;;;-0.60;99.90;;;;;;5085008;28;20052;-47
2021/01/28 01:25:18;;;;;;;28.13;13.23;;;-0.50;99.90;;;;;;5077441;28;20098;-48
2021/01/28 01:27:45;;;;;;;28.20;14.18;;;-0.50;99.90;;;;;;5093251;28;20074;-46
2021/01/28 01:30:14;;;;;;;30.38;14.80;;;-0.50;99.90;;;;;;5086440;28;20048;-47
2021/01/28 01:32:41;;;;;;;27.80;14.55;;;-0.60;99.90;;;;;;5094008;28;20060;-47
2021/01/28 01:35:09;;;;;;;35.22;15.63;;;-0.50;99.90;;;;;;5086995;28;20060;-47
2021/01/28 01:37:36;;;;;;;30.55;15.88;;;-0.60;99.90;;;;;;5092731;28;20040;-46
2021/01/28 01:40:05;;;;;;;32.30;15.13;;;-0.60;99.90;;;;;;5085364;28;20051;-47
2021/01/28 01:42:32;;;;;;;30.80;15.52;;;-0.60;99.90;;;;;;5077359;28;20138;-47
2021/01/28 01:45:00;;;;;;;30.90;14.30;;;-0.50;99.90;;;;;;5086867;28;20050;-48
2021/01/28 01:47:35;;;;;;;28.48;14.88;;;-0.50;99.90;;;;;;5079489;28;20056;-46
2021/01/28 01:50:11;;;;;;;35.38;16.52;;;-0.50;99.90;;;;;;5094339;28;20056;-46
2021/01/28 01:52:38;;;;;;;30.30;14.20;;;-0.60;99.90;;;;;;5084653;28;20431;-46
2021/01/28 01:55:07;;;;;;;27.63;12.88;;;-0.60;99.90;;;;;;5078827;28;20044;-47
2021/01/28 01:57:37;;;;;;;28.17;12.60;;;-0.70;99.90;;;;;;5086841;28;20077;-47
2021/01/28 02:00:09;;;;;;;25.83;13.57;;;-0.60;99.90;;;;;;5078377;28;20051;-47
2021/01/28 02:02:39;;;;;;;24.85;13.05;;;-0.70;99.90;;;;;;5092155;28;20044;-46
2021/01/28 02:05:16;;;;;;;25.70;13.15;;;-0.60;99.90;;;;;;5085968;28;20076;-46
2021/01/28 02:07:42;;;;;;;25.52;12.02;;;-0.70;99.90;;;;;;5079617;28;20055;-46
2021/01/28 02:10:14;;;;;;;24.23;13.43;;;-0.60;99.90;;;;;;5087895;28;20048;-46
2021/01/28 02:12:41;;;;;;;27.63;13.75;;;-0.60;99.90;;;;;;5077389;28;20408;-46
2021/01/28 02:15:09;;;;;;;24.98;11.70;;;-0.60;99.90;;;;;;5089876;28;20071;-46
2021/01/28 02:17:39;;;;;;;24.33;11.85;;;-0.60;99.90;;;;;;5088837;28;20067;-47
2021/01/28 02:20:42;;;;;;;23.67;12.45;;;-0.60;99.90;;;;;;5075701;28;20135;-46
2021/01/28 02:23:43;;;;;;;19.00;10.75;;;-0.60;99.90;;;;;;5084204;28;20044;-47
2021/01/28 02:26:10;;;;;;;19.88;9.85;;;-0.60;99.90;;;;;;4979804;28;20482;-46
2021/01/28 02:28:37;;;;;;;23.75;11.18;;;-0.60;99.90;;;;;;4975686;28;20053;-47
2021/01/28 02:31:06;;;;;;;21.90;9.32;;;-0.50;99.90;;;;;;4985457;28;20050;-46
2021/01/28 02:33:49;;;;;;;19.65;9.05;;;-0.50;99.90;;;;;;4980657;28;20046;-47
2021/01/28 02:36:16;;;;;;;16.77;8.77;;;-0.50;99.90;;;;;;4987559;28;20097;-47
2021/01/28 02:38:43;;;;;;;24.05;9.68;;;-0.50;99.90;;;;;;4989642;28;20065;-47
2021/01/28 02:41:11;;;;;;;22.15;8.73;;;-0.40;99.90;;;;;;4989509;28;20210;-46
2021/01/28 02:43:38;;;;;;;20.25;9.27;;;-0.50;99.90;;;;;;4985162;28;20051;-47
2021/01/28 02:46:12;;;;;;;20.33;10.55;;;-0.50;99.90;;;;;;4990247;28;20065;-46
2021/01/28 02:48:39;;;;;;;20.73;9.85;;;-0.50;99.90;;;;;;4987461;28;20060;-46
2021/01/28 02:51:08;;;;;;;19.63;10.23;;;-0.50;99.90;;;;;;4984034;28;20046;-46
2021/01/28 02:53:44;;;;;;;20.67;10.82;;;-0.50;99.90;;;;;;4980347;28;20499;-47
2021/01/28 02:56:12;;;;;;;19.60;10.32;;;-0.50;99.90;;;;;;4981285;28;20138;-46
2021/01/28 02:58:39;;;;;;;18.05;9.80;;;-0.50;99.90;;;;;;4989204;28;20538;-46
2021/01/28 03:01:08;;;;;;;22.17;10.15;;;-0.50;99.90;;;;;;5073080;28;20044;-47
2021/01/28 03:03:34;;;;;;;21.85;9.90;;;-0.60;99.90;;;;;;5090046;28;20764;-47
2021/01/28 03:06:02;;;;;;;19.65;9.25;;;-0.60;99.90;;;;;;5082522;28;20059;-46
2021/01/28 03:08:28;;;;;;;19.90;8.65;;;-0.60;99.90;;;;;;5075051;28;20469;-47
2021/01/28 03:10:55;;;;;;;17.77;9.00;;;-0.60;99.90;;;;;;5088494;28;20049;-47
2021/01/28 03:13:22;;;;;;;16.98;7.95;;;-0.60;99.90;;;;;;5080579;28;20052;-46
2021/01/28 03:15:49;;;;;;;13.02;7.10;;;-0.60;99.90;;;;;;5088121;28;20047;-46
2021/01/28 03:18:17;;;;;;;17.15;8.82;;;-0.60;99.90;;;;;;5087323;28;20052;-47
2021/01/28 03:20:43;;;;;;;11.77;6.32;;;-0.70;99.90;;;;;;5080733;28;20048;-46
2021/01/28 03:23:10;;;;;;;13.98;5.72;;;-0.70;99.90;;;;;;5087517;28;20450;-47
2021/01/28 03:25:37;;;;;;;16.58;6.82;;;-0.70;99.90;;;;;;5087777;28;20056;-46
2021/01/28 03:28:05;;;;;;;14.90;7.45;;;-0.80;99.90;;;;;;5078722;28;20054;-47
2021/01/28 03:30:44;;;;;;;16.25;7.90;;;-0.80;99.90;;;;;;5078478;28;20459;-46
2021/01/28 03:33:14;;;;;;;20.13;9.82;;;-0.80;99.90;;;;;;5088890;28;20105;-46
2021/01/28 03:35:41;;;;;;;15.02;8.30;;;-0.80;99.90;;;;;;5084196;28;20048;-46
2021/01/28 03:38:09;;;;;;;17.10;9.00;;;-0.80;99.90;;;;;;5077354;28;20048;-47
2021/01/28 03:40:36;;;;;;;14.57;7.10;;;-0.80;99.90;;;;;;5085472;28;20067;-46
2021/01/28 03:43:03;;;;;;;17.75;9.30;;;-0.80;99.90;;;;;;5084545;28;20047;-46
2021/01/28 03:45:30;;;;;;;20.20;9.57;;;-0.80;99.90;;;;;;5091285;28;20570;-47
2021/01/28 03:47:59;;;;;;;17.70;8.40;;;-0.80;99.90;;;;;;5081026;28;20258;-47
2021/01/28 03:50:30;;;;;;;14.15;7.78;;;-0.80;99.90;;;;;;5077408;28;20048;-46
2021/01/28 03:52:56;;;;;;;13.13;6.55;;;-0.80;99.90;;;;;;5084646;28;20055;-47
2021/01/28 03:55:23;;;;;;;16.35;8.50;;;-0.80;99.90;;;;;;5089147;28;20091;-47
2021/01/28 03:57:51;;;;;;;18.27;7.85;;;-0.80;99.90;;;;;;5080931;28;20055;-46
2021/01/28 04:00:23;;;;;;;16.30;8.15;;;-0.80;99.90;;;;;;5076217;28;20040;-47
2021/01/28 04:02:51;;;;;;;15.18;8.18;;;-0.80;99.90;;;;;;5089556;28;20431;-46
2021/01/28 04:05:19;;;;;;;15.63;8.85;;;-0.80;99.90;;;;;;5085147;28;20051;-47
2021/01/28 04:07:48;;;;;;;17.95;8.52;;;-0.80;99.90;;;;;;5072420;28;20139;-46
2021/01/28 04:10:23;;;;;;;19.58;9.32;;;-0.90;99.90;;;;;;5085519;28;20047;-46
2021/01/28 04:12:50;;;;;;;15.10;7.68;;;-0.90;99.90;;;;;;5080737;28;20052;-47
2021/01/28 04:15:17;;;;;;;12.52;6.90;;;-0.90;99.90;;;;;;5088507;28;20051;-46
2021/01/28 04:17:44;;;;;;;15.88;7.22;;;-0.90;99.90;;;;;;5084394;28;20049;-46
2021/01/28 04:20:13;;;;;;;16.30;7.00;;;-0.90;99.90;;;;;;5096314;28;20425;-47
2021/01/28 04:22:40;;;;;;;16.27;8.70;;;-1.00;99.90;;;;;;5089773;28;20531;-47
2021/01/28 04:25:08;;;;;;;16.92;8.07;;;-1.00;99.90;;;;;;5088576;28;20047;-46
2021/01/28 04:27:35;;;;;;;15.35;7.88;;;-1.00;99.90;;;;;;5084550;28;20071;-46
2021/01/28 04:30:04;;;;;;;14.13;7.20;;;-1.00;99.90;;;;;;5087391;28;20044;-47
2021/01/28 04:32:31;;;;;;;12.82;7.63;;;-1.00;99.90;;;;;;5084585;28;20053;-47
2021/01/28 04:34:58;;;;;;;22.63;8.70;;;-1.00;99.90;;;;;;5074951;28;20055;-46
2021/01/28 04:37:24;;;;;;;15.57;7.93;;;-1.00;99.90;;;;;;5084793;28;20040;-47
2021/01/28 04:39:52;;;;;;;15.40;8.18;;;-1.00;99.90;;;;;;5080575;28;20066;-48
2021/01/28 04:42:24;;;;;;;20.15;7.68;;;-1.00;99.90;;;;;;5088291;28;20476;-47
2021/01/28 04:44:52;;;;;;;23.52;9.90;;;-1.00;99.90;;;;;;5086608;28;20044;-46
2021/01/28 04:47:20;;;;;;;17.88;8.98;;;-1.00;99.90;;;;;;5084619;28;20423;-46
2021/01/28 04:49:54;;;;;;;21.08;9.45;;;-1.00;99.90;;;;;;5089587;28;20715;-46
2021/01/28 04:52:23;;;;;;;22.40;9.57;;;-1.00;99.90;;;;;;5082962;28;20059;-47
2021/01/28 04:54:53;;;;;;;22.92;11.68;;;-1.00;99.90;;;;;;5080353;28;20388;-46
2021/01/28 04:57:20;;;;;;;20.17;9.15;;;-0.90;99.90;;;;;;5084960;28;20043;-46
2021/01/28 04:59:52;;;;;;;17.88;6.82;;;-1.00;99.90;;;;;;5079012;28;20048;-46
2021/01/28 05:02:24;;;;;;;19.35;8.55;;;-1.00;99.90;;;;;;5090742;28;20047;-46
2021/01/28 05:04:59;;;;;;;15.50;7.90;;;-1.10;99.90;;;;;;5078556;28;20051;-48
2021/01/28 05:07:36;;;;;;;17.23;7.03;;;-1.00;99.90;;;;;;5093368;28;20079;-46
2021/01/28 05:10:08;;;;;;;8.70;4.30;;;-1.10;99.90;;;;;;5088705;28;20337;-46
2021/01/28 05:12:35;;;;;;;5.68;2.03;;;-1.20;99.90;;;;;;5089119;28;20512;-46
2021/01/28 05:15:18;;;;;;;1.48;1.02;;;-1.30;99.90;;;;;;5090583;28;20051;-48
2021/01/28 05:18:00;;;;;;;7.07;1.65;;;-1.50;99.90;;;;;;5079236;28;20048;-46
2021/01/28 05:20:28;;;;;;;1.42;0.90;;;-1.50;99.90;;;;;;5099962;28;20050;-46
2021/01/28 05:23:05;;;;;;;4.18;1.00;;;-1.50;99.90;;;;;;5089350;28;20089;-46
2021/01/28 05:25:41;;;;;;;2.63;1.08;;;-1.40;99.90;;;;;;5079288;28;20060;-47
2021/01/28 05:28:17;;;;;;;10.43;4.80;;;-1.40;99.90;;;;;;5084133;28;20060;-46
2021/01/28 05:30:45;;;;;;;9.02;4.22;;;-1.50;99.90;;;;;;5078416;28;20385;-46
2021/01/28 05:33:32;;;;;;;11.57;4.30;;;-1.40;99.90;;;;;;5093053;28;20059;-47
2021/01/28 05:36:21;;;;;;;7.55;3.25;;;-1.50;99.90;;;;;;5086694;28;20044;-46
2021/01/28 05:38:54;;;;;;;10.90;4.50;;;-1.50;99.90;;;;;;5086390;28;20051;-47
2021/01/28 05:41:26;;;;;;;7.57;3.38;;;-1.50;99.90;;;;;;5085043;28;20417;-46
2021/01/28 05:43:53;;;;;;;12.30;5.47;;;-1.50;99.90;;;;;;5080180;28;20052;-47
2021/01/28 05:46:27;;;;;;;17.20;6.40;;;-1.50;99.90;;;;;;5092035;28;20043;-46
2021/01/28 05:49:05;;;;;;;9.93;5.63;;;-1.60;99.90;;;;;;5085484;28;20480;-46
2021/01/28 05:51:37;;;;;;;10.25;5.40;;;-1.50;99.90;;;;;;5078407;28;20423;-47
2021/01/28 05:54:07;;;;;;;6.93;3.20;;;-1.40;99.90;;;;;;5089016;28;20052;-46
2021/01/28 05:56:49;;;;;;;5.40;2.63;;;-1.40;99.90;;;;;;5085939;28;20048;-46
2021/01/28 05:59:28;;;;;;;11.30;4.60;;;-1.30;99.90;;;;;;5092506;28;20427;-46
2021/01/28 06:02:06;;;;;;;9.15;4.57;;;-1.40;99.90;;;;;;5088006;28;20044;-46
2021/01/28 06:05:04;;;;;;;9.00;4.78;;;-1.40;99.90;;;;;;5081183;28;20097;-47
2021/01/28 06:07:52;;;;;;;11.98;5.40;;;-1.50;99.90;;;;;;5083525;28;20048;-46
2021/01/28 06:10:19;;;;;;;21.98;7.93;;;-1.50;99.90;;;;;;5087154;28;20051;-46
2021/01/28 06:13:22;;;;;;;12.15;4.53;;;-1.60;99.90;;;;;;5087643;28;20056;-46
2021/01/28 06:16:28;;;;;;;14.55;6.90;;;-1.70;99.90;;;;;;5087879;28;20040;-46
2021/01/28 06:19:12;;;;;;;10.45;4.20;;;-1.70;99.90;;;;;;5012136;28;20474;-47
2021/01/28 06:21:53;;;;;;;9.65;4.68;;;-1.70;99.90;;;;;;5022329;28;20054;-46
2021/01/28 06:24:28;;;;;;;12.90;5.80;;;-1.70;99.90;;;;;;5013700;28;20046;-46
2021/01/28 06:27:39;;;;;;;63.78;28.50;;;-1.70;99.90;;;;;;5011529;28;20072;-46
2021/01/28 06:30:08;;;;;;;5.18;1.98;;;-1.70;99.90;;;;;;4915180;29;20052;-47
2021/01/28 06:32:43;;;;;;;5.18;2.67;;;-1.60;99.90;;;;;;4922079;29;20081;-47
2021/01/28 06:35:18;;;;;;;4.72;2.42;;;-1.70;99.90;;;;;;4978400;28;20046;-47
2021/01/28 06:38:06;;;;;;;2.30;1.45;;;-1.80;99.90;;;;;;5012472;28;20779;-47
2021/01/28 06:40:38;;;;;;;6.43;3.17;;;-1.80;99.90;;;;;;5012011;28;20056;-47
2021/01/28 06:43:15;;;;;;;5.28;2.20;;;-1.80;99.90;;;;;;5010117;28;20502;-48
2021/01/28 06:45:59;;;;;;;8.13;2.22;;;-1.80;99.90;;;;;;5010611;28;20050;-47
2021/01/28 06:48:37;;;;;;;11.57;5.80;;;-1.80;99.90;;;;;;5011478;28;20050;-47
2021/01/28 06:51:14;;;;;;;8.77;4.82;;;-1.80;99.90;;;;;;5010358;28;20605;-51
2021/01/28 06:53:58;;;;;;;9.73;4.43;;;-1.80;99.90;;;;;;5028102;28;20048;-48
2021/01/28 06:56:51;;;;;;;3.83;2.22;;;-1.70;99.90;;;;;;5075253;28;20524;-47
2021/01/28 06:59:41;;;;;;;8.00;3.95;;;-1.70;99.90;;;;;;5092409;28;20127;-47
2021/01/28 07:02:38;;;;;;;10.23;4.00;;;-1.70;99.90;;;;;;5086929;28;20043;-47
2021/01/28 07:05:11;;;;;;;22.77;10.20;;;-1.70;99.90;;;;;;5081988;28;20105;-49
2021/01/28 07:08:04;;;;;;;24.15;13.43;;;-1.70;99.90;;;;;;5091654;28;20063;-48
2021/01/28 07:10:35;;;;;;;15.52;8.60;;;-1.70;99.90;;;;;;5083945;28;20484;-47
2021/01/28 07:13:03;;;;;;;13.07;7.47;;;-1.70;99.90;;;;;;5074924;28;20098;-47
2021/01/28 07:15:30;;;;;;;21.70;10.27;;;-1.70;99.90;;;;;;5088450;28;20043;-48
2021/01/28 07:18:04;;;;;;;11.32;6.80;;;-1.60;99.90;;;;;;5081716;28;20043;-48
2021/01/28 07:20:33;;;;;;;14.73;8.23;;;-1.60;99.90;;;;;;5083124;28;20040;-51
2021/01/28 07:23:27;;;;;;;16.25;7.38;;;-1.50;99.90;;;;;;5080702;28;20044;-52
2021/01/28 07:26:06;;;;;;;11.00;5.28;;;-1.40;99.90;;;;;;5072472;28;20040;-47
2021/01/28 07:28:35;;;;;;;2.03;0.98;;;-1.40;99.90;;;;;;5089737;28;20138;-48
2021/01/28 07:31:08;;;;;;;5.38;1.65;;;-1.40;99.90;;;;;;5081881;28;20048;-50
2021/01/28 07:33:46;;;;;;;6.43;2.97;;;-1.30;99.90;;;;;;5088432;28;20135;-48
2021/01/28 07:36:12;;;;;;;10.45;6.70;;;-1.20;99.90;;;;;;5084275;28;20055;-48
2021/01/28 07:38:45;;;;;;;14.45;6.65;;;-1.20;99.90;;;;;;5090170;28;20483;-48
2021/01/28 07:41:15;;;;;;;13.50;5.65;;;-1.20;99.90;;;;;;5086881;28;20044;-52
2021/01/28 07:43:45;;;;;;;17.67;8.70;;;-1.20;99.90;;;;;;5080828;28;20051;-52
2021/01/28 07:46:26;;;;;;;16.13;7.28;;;-1.10;99.90;;;;;;5080886;28;20059;-48
2021/01/28 07:49:14;;;;;;;19.88;9.82;;;-1.10;99.90;;;;;;5080172;28;20059;-48
2021/01/28 07:51:46;;;;;;;18.27;9.45;;;-1.10;99.90;;;;;;5071796;28;20052;-50
2021/01/28 07:54:24;;;;;;;20.85;9.48;;;-1.10;99.90;;;;;;5086821;28;20056;-49
2021/01/28 07:57:07;;;;;;;10.80;5.60;;;-1.00;99.90;;;;;;5077957;28;20040;-50
2021/01/28 07:59:47;;;;;;;10.05;4.85;;;-1.00;99.90;;;;;;5090481;28;20044;-47
2021/01/28 08:02:29;;;;;;;14.93;7.65;;;-1.10;99.90;;;;;;5086028;28;20047;-50
2021/01/28 08:05:19;;;;;;;13.77;7.70;;;-1.00;99.90;;;;;;5089005;28;20056;-47
2021/01/28 08:08:01;;;;;;;18.02;10.55;;;-1.00;99.90;;;;;;5076851;28;20056;-48
2021/01/28 08:10:29;;;;;;;48.25;22.73;;;-1.00;99.90;;;;;;5080609;28;20052;-52
2021/01/28 08:13:13;;;;;;;29.15;14.30;;;-0.90;99.90;;;;;;5091145;28;20058;-50
2021/01/28 08:15:53;;;;;;;27.25;11.70;;;-0.80;99.90;;;;;;5085903;28;20472;-49
2021/01/28 08:18:29;;;;;;;25.83;13.23;;;-0.80;99.90;;;;;;5083723;28;20064;-50
2021/01/28 08:21:23;;;;;;;27.67;13.63;;;-0.90;99.90;;;;;;5095100;28;20052;-50
2021/01/28 08:23:50;;;;;;;26.98;14.60;;;-0.80;99.90;;;;;;5070034;28;20365;-49
2021/01/28 08:26:25;;;;;;;25.55;14.05;;;-0.80;99.90;;;;;;5087862;28;20131;-49
2021/01/28 08:29:04;;;;;;;24.08;12.52;;;-0.70;99.90;;;;;;5088303;28;20051;-49
2021/01/28 08:31:57;;;;;;;34.08;16.65;;;-0.70;99.90;;;;;;5082324;28;20109;-50
2021/01/28 08:34:29;;;;;;;22.10;12.57;;;-0.60;99.90;;;;;;5085600;28;20055;-52
2021/01/28 08:37:00;;;;;;;24.88;14.50;;;-0.70;99.90;;;;;;5083896;28;20051;-50
2021/01/28 08:39:35;;;;;;;29.58;13.82;;;-0.70;99.90;;;;;;5087530;28;20055;-50
2021/01/28 08:42:13;;;;;;;37.20;17.17;;;-0.70;99.90;;;;;;5088485;28;20055;-49
2021/01/28 08:44:42;;;;;;;37.15;18.20;;;-0.60;99.90;;;;;;5082266;28;20048;-49
2021/01/28 08:47:15;;;;;;;23.00;12.70;;;-0.50;99.90;;;;;;5078793;28;20063;-49
2021/01/28 08:49:42;;;;;;;17.63;9.57;;;-0.50;99.90;;;;;;5084314;28;20131;-51
2021/01/28 08:52:15;;;;;;;13.38;6.78;;;-0.40;99.90;;;;;;5087236;28;20048;-49
2021/01/28 08:54:46;;;;;;;15.15;8.38;;;-0.30;99.90;;;;;;5078455;28;20511;-50
2021/01/28 08:57:17;;;;;;;18.67;9.13;;;-0.30;99.90;;;;;;5080390;28;20585;-50
2021/01/28 09:00:00;;;;;;;13.48;6.95;;;-0.20;99.90;;;;;;5080957;28;20052;-50
2021/01/28 09:02:31;;;;;;;13.27;7.57;;;-0.20;99.90;;;;;;5082563;28;20050;-49
2021/01/28 09:05:23;;;;;;;22.45;13.48;;;-0.20;99.90;;;;;;5058902;28;20492;-50
2021/01/28 09:08:02;;;;;;;25.83;13.27;;;-0.20;99.90;;;;;;5089149;28;20090;-50
2021/01/28 09:10:42;;;;;;;19.23;10.63;;;-0.20;99.90;;;;;;5090069;28;20046;-50
2021/01/28 09:13:15;;;;;;;18.10;8.45;;;-0.20;99.90;;;;;;5083848;28;20044;-52
2021/01/28 09:15:42;;;;;;;15.40;8.07;;;-0.20;99.90;;;;;;5080127;28;20366;-52
2021/01/28 09:18:27;;;;;;;14.80;5.70;;;-0.10;99.90;;;;;;5084960;28;20498;-53
2021/01/28 09:21:04;;;;;;;13.68;5.28;;;-0.10;99.90;;;;;;5083370;28;20044;-50
2021/01/28 09:23:30;;;;;;;11.07;5.60;;;-0.10;99.90;;;;;;5074965;28;20040;-53
2021/01/28 09:26:12;;;;;;;12.07;6.47;;;0.00;99.90;;;;;;5080901;28;20040;-50
2021/01/28 09:28:39;;;;;;;13.77;6.82;;;0.00;99.90;;;;;;5077979;28;20048;-51
2021/01/28 09:31:29;;;;;;;19.17;8.25;;;0.00;99.90;;;;;;5088788;28;20058;-52
2021/01/28 09:34:09;;;;;;;13.45;5.72;;;0.00;99.90;;;;;;5067057;28;20541;-50
2021/01/28 09:36:37;;;;;;;16.63;7.28;;;0.00;99.90;;;;;;5077984;28;20051;-49
2021/01/28 09:39:15;;;;;;;21.55;7.03;;;0.10;99.90;;;;;;5092582;28;20296;-53
2021/01/28 09:41:50;;;;;;;13.88;5.75;;;0.10;99.90;;;;;;5085132;28;20063;-50
2021/01/28 09:44:49;;;;;;;8.90;4.18;;;0.10;99.90;;;;;;5081616;28;21106;-49
2021/01/28 09:47:34;;;;;;;6.25;3.70;;;0.20;99.90;;;;;;5009553;28;20061;-52
2021/01/28 09:50:05;;;;;;;10.77;5.72;;;0.30;99.90;;;;;;5009492;28;20505;-50
2021/01/28 09:52:34;;;;;;;19.65;10.80;;;0.20;99.90;;;;;;5009643;28;20053;-50
2021/01/28 09:55:05;;;;;;;24.13;11.20;;;0.30;99.90;;;;;;5009895;28;20485;-52
2021/01/28 09:57:31;;;;;;;19.55;10.27;;;0.30;99.90;;;;;;5009329;28;20446;-51
2021/01/28 10:00:00;;;;;;;26.63;13.70;;;0.40;99.90;;;;;;5010800;28;20065;-50
2021/01/28 10:02:42;;;;;;;26.30;13.57;;;0.40;99.90;;;;;;5007754;28;20056;-50
2021/01/28 10:05:12;;;;;;;28.60;14.75;;;0.50;99.90;;;;;;5009500;28;20564;-50
2021/01/28 10:07:39;;;;;;;24.45;14.40;;;0.50;99.90;;;;;;5009411;28;20054;-51
2021/01/28 10:10:09;;;;;;;23.20;11.63;;;0.50;99.90;;;;;;5007846;28;20052;-51
2021/01/28 10:12:37;;;;;;;19.92;10.32;;;0.60;99.90;;;;;;5009381;28;20145;-50
2021/01/28 10:15:04;;;;;;;16.40;10.07;;;0.60;99.90;;;;;;5008618;28;20049;-50
2021/01/28 10:17:31;;;;;;;15.07;8.48;;;0.60;99.90;;;;;;5009508;28;20061;-50
2021/01/28 10:19:58;;;;;;;15.50;9.05;;;0.60;99.90;;;;;;5014380;28;20091;-50
2021/01/28 10:22:24;;;;;;;27.35;13.38;;;0.70;99.90;;;;;;5036247;28;20063;-52
2021/01/28 10:24:51;;;;;;;21.75;10.55;;;0.70;99.90;;;;;;5089535;28;20048;-50
2021/01/28 10:27:17;;;;;;;14.52;8.00;;;0.70;99.90;;;;;;5091682;28;20052;-50
2021/01/28 10:29:44;;;;;;;23.58;11.20;;;0.60;99.90;;;;;;5085176;28;20044;-50
2021/01/28 10:32:15;;;;;;;23.98;13.73;;;0.60;99.90;;;;;;5083799;28;20045;-50
2021/01/28 10:34:42;;;;;;;26.38;12.05;;;0.70;99.90;;;;;;5087557;28;20040;-50
2021/01/28 10:37:11;;;;;;;19.85;10.38;;;0.80;99.90;;;;;;5079903;28;20468;-50
2021/01/28 10:39:37;;;;;;;19.05;9.60;;;0.70;99.90;;;;;;5081657;28;20052;-50
2021/01/28 10:42:04;;;;;;;19.20;9.10;;;0.70;99.90;;;;;;5083672;28;20051;-50
2021/01/28 10:44:31;;;;;;;8.02;4.63;;;0.70;99.90;;;;;;5086469;28;20041;-50
2021/01/28 10:46:58;;;;;;;12.38;5.55;;;0.80;99.90;;;;;;5069199;28;20063;-50
2021/01/28 10:49:24;;;;;;;10.55;6.65;;;0.80;99.90;;;;;;5077137;28;20040;-53
2021/01/28 10:51:51;;;;;;;11.88;5.80;;;0.90;99.90;;;;;;5088369;28;20055;-50
2021/01/28 10:54:18;;;;;;;12.43;6.00;;;0.90;99.90;;;;;;5086837;28;20044;-51
2021/01/28 10:56:45;;;;;;;11.32;6.13;;;1.00;99.90;;;;;;5076938;28;20048;-52
2021/01/28 10:59:11;;;;;;;13.30;7.07;;;1.00;99.90;;;;;;5090596;28;20044;-49
2021/01/28 11:01:38;;;;;;;7.43;4.78;;;1.10;99.90;;;;;;5085270;28;20048;-50
2021/01/28 11:04:05;;;;;;;10.75;4.82;;;1.10;99.90;;;;;;5089422;28;20050;-50
2021/01/28 11:06:32;;;;;;;5.38;3.53;;;1.10;99.90;;;;;;5084055;28;20052;-50
2021/01/28 11:08:58;;;;;;;8.60;4.28;;;1.10;99.90;;;;;;5084136;28;20075;-50
2021/01/28 11:11:24;;;;;;;8.23;5.45;;;1.20;99.90;;;;;;5091659;28;20403;-50
2021/01/28 11:13:54;;;;;;;17.15;7.57;;;1.30;99.90;;;;;;5086670;28;21514;-49
2021/01/28 11:16:26;;;;;;;24.05;9.75;;;1.40;99.90;;;;;;5083594;28;20044;-49
2021/01/28 11:18:54;;;;;;;159.55;60.13;;;1.40;99.90;;;;;;5082685;28;20046;-50
2021/01/28 11:21:22;;;;;;;32.28;14.20;;;1.50;99.90;;;;;;5087916;28;20044;-50
2021/01/28 11:23:49;;;;;;;16.25;7.93;;;1.40;99.90;;;;;;5089347;28;20051;-50
2021/01/28 11:26:16;;;;;;;15.68;8.20;;;1.30;99.90;;;;;;5088729;28;20048;-50
2021/01/28 11:28:43;;;;;;;20.00;8.65;;;1.40;99.90;;;;;;5080357;28;20052;-50
2021/01/28 11:31:11;;;;;;;16.05;8.07;;;1.30;99.90;;;;;;5084236;28;20044;-50
2021/01/28 11:33:39;;;;;;;21.85;8.77;;;1.20;99.90;;;;;;5094298;28;20437;-50
2021/01/28 11:36:05;;;;;;;41.13;18.52;;;1.20;99.90;;;;;;5087774;28;20044;-50
2021/01/28 11:38:32;;;;;;;14.30;6.88;;;1.20;99.90;;;;;;5086461;28;20044;-50
2021/01/28 11:40:59;;;;;;;13.20;6.28;;;1.30;99.90;;;;;;5090191;28;20059;-51
2021/01/28 11:43:26;;;;;;;17.73;5.80;;;1.20;99.90;;;;;;5087417;28;20097;-50
2021/01/28 11:45:52;;;;;;;22.30;10.50;;;1.30;99.90;;;;;;5090533;28;20050;-50
2021/01/28 11:48:19;;;;;;;15.40;6.43;;;1.30;99.90;;;;;;5083117;28;20041;-52
2021/01/28 11:50:46;;;;;;;25.65;8.63;;;1.40;99.90;;;;;;5084239;28;20076;-52
2021/01/28 11:53:12;;;;;;;10.15;7.32;;;1.40;99.90;;;;;;5101607;28;20047;-52
2021/01/28 11:55:38;;;;;;;13.13;7.05;;;1.40;99.90;;;;;;5090822;28;20048;-50
2021/01/28 11:58:05;;;;;;;14.25;6.00;;;1.40;99.90;;;;;;5074834;28;20052;-51
2021/01/28 12:00:32;;;;;;;15.05;8.05;;;1.50;99.90;;;;;;5088617;28;20043;-50
2021/01/28 12:02:59;;;;;;;16.45;8.95;;;1.60;99.90;;;;;;5094857;28;20048;-50
2021/01/28 12:05:28;;;;;;;18.55;9.50;;;1.70;99.90;;;;;;5090507;28;20128;-50
2021/01/28 12:07:56;;;;;;;19.90;11.10;;;1.70;99.90;;;;;;5085710;28;20701;-50
2021/01/28 12:10:26;;;;;;;19.05;9.73;;;1.70;99.90;;;;;;5071292;28;20470;-50
2021/01/28 12:12:52;;;;;;;15.75;9.15;;;1.80;99.90;;;;;;5090357;28;20381;-50
2021/01/28 12:15:20;;;;;;;24.00;12.13;;;1.80;99.90;;;;;;5086415;28;20079;-50
2021/01/28 12:17:49;;;;;;;20.20;12.35;;;1.90;99.90;;;;;;5078800;28;20094;-49
2021/01/28 12:20:21;;;;;;;27.33;13.93;;;1.90;99.90;;;;;;5082995;28;20515;-50
2021/01/28 12:22:48;;;;;;;30.20;13.73;;;2.00;99.90;;;;;;5074296;28;20494;-50
2021/01/28 12:25:14;;;;;;;23.77;13.60;;;2.00;99.90;;;;;;5072535;28;20044;-50
2021/01/28 12:27:41;;;;;;;33.28;17.20;;;2.10;99.90;;;;;;5085265;28;20051;-51
2021/01/28 12:30:10;;;;;;;31.00;17.42;;;2.10;99.90;;;;;;5089887;28;21243;-50
2021/01/28 12:32:38;;;;;;;31.30;16.08;;;2.10;99.90;;;;;;5085523;28;20437;-50
2021/01/28 12:35:06;;;;;;;31.08;16.42;;;2.20;99.90;;;;;;5057632;28;20067;-50
2021/01/28 12:37:33;;;;;;;36.28;17.35;;;2.20;99.90;;;;;;5090292;28;20395;-50
2021/01/28 12:40:00;;;;;;;29.75;16.88;;;2.20;99.90;;;;;;5085080;28;20403;-51
2021/01/28 12:42:27;;;;;;;20.77;12.60;;;2.20;99.90;;;;;;5081843;28;20048;-50
2021/01/28 12:44:54;;;;;;;26.65;10.13;;;2.20;99.90;;;;;;5089308;28;20051;-52
2021/01/28 12:47:20;;;;;;;17.55;10.82;;;2.20;99.90;;;;;;5086459;28;20055;-50
2021/01/28 12:49:48;;;;;;;23.42;10.10;;;2.10;99.90;;;;;;5076283;28;20139;-50
2021/01/28 12:52:15;;;;;;;17.63;7.63;;;2.10;99.90;;;;;;5082201;28;21479;-50
2021/01/28 12:54:41;;;;;;;20.83;7.75;;;2.10;99.90;;;;;;5088159;28;20056;-51
2021/01/28 12:57:08;;;;;;;15.10;8.02;;;2.10;99.90;;;;;;5086640;28;20052;-50
2021/01/28 12:59:35;;;;;;;27.67;11.35;;;2.20;99.90;;;;;;5086494;28;20055;-50